Aviation Digital Data Service (ADDS)

Output produced by METARs form (1259 UTC 10 July 2020)
found at http://www.aviationweather.gov/metar/data/
 
KPNS 101253Z 30008KT 10SM CLR 29/26 A3000 RMK AO2 SLP158 T02890256
KPNS 101229Z 29007G17KT 9SM FEW008 28/26 A2999 RMK AO2 T02780256
KPNS 101147Z 1012/1112 26005KT P6SM FEW020 FEW250 
     FM101500 30010KT P6SM SCT020 SCT150 
     FM101700 28010KT P6SM VCTS SCT030CB SCT150 
     TEMPO 1019/1023 VRB25KT 2SM TSRA BKN025CB 
     FM110000 30008KT P6SM SCT050 SCT250